Historyczne dane pomiarowe

Dodano dane terminowe – wersja testowa.

Dane z okresu 1951-2019

Wersja bazy: 1.34 [2019-03-16, lista zmian], aktualizacja planowana na 2019-04-15

Dane meteo z obszaru Polski uzyskane na podstawie danych udostępnionych przez Instytut Meteorologii i Gospodarki Wodnej – Państwowy Instytut Badawczy.

 

Wybierz Datę:    

       

TemperaturaWilgotnośćWiatrCiśnienieOpadyŚniegCzas trwania zjawisk
 Stacja t tx tn tng RH VA  wxwx mslp ppp RRR   cm mm wxwxwxwxwxwxwx
1987-08-14 14.7 22.6 4.7- 71.8- 6.3 0.3---- 1.2------------
1987-08-13 12.4 19.0 4.0- 72.0- 3.0 0.7---- 0.0------------
1987-08-12 11.4 18.3 5.3- 81.8- 3.3 1.3---- 0.0------------
1987-08-11 14.5 18.4 12.7- 78.5- 5.3 1.3---- 0.2------------
1987-08-10 14.8 19.7 13.1- 88.8- 5.3 1.3---- 2.6------------
1987-08-09 15.5 24.6 5.8- 71.3- 2.3 0.3---- 0.1------------
1987-08-08 13.7 19.6 9.0- 75.5- 1.7 0.7---- 0.0------------
1987-08-07 11.6 18.1 3.4- 79.0- 3.7 0.7---- 0.0------------
1987-08-06 12.1 15.9 10.2- 80.3- 5.3 2.3---- 4.2------------
1987-08-05 13.3 17.9 9.0- 80.5- 7.3 0.7---- 0.2------------
1987-08-04 14.0 18.8 8.9- 93.0- 6.3 1.0---- 0.9------------
1987-08-03 15.3 19.4 11.2- 83.5- 1.7 1.0---- 0.0------------
1987-08-02 15.8 18.2 13.0- 79.0- 2.7 1.7---- 5.2------------
1987-08-01 16.5 23.1 7.9- 77.0- 2.7 0.0---- 2.2------------
1987-07-31 15.5 21.5 12.0- 92.8- 8.0 1.3---- 8.7------------
1987-07-30 17.4 23.4 11.9- 75.5- 4.0 0.3---- 0.2------------
1987-07-29 14.0 20.3 9.7- 78.3- 3.0 0.3---- 0.0------------
1987-07-28 13.3 17.2 11.4- 85.0- 5.0 1.7---- 9.1------------
1987-07-27 13.6 19.2 8.2- 62.8- 3.7 2.0---- 1.2------------
1987-07-26 13.0 19.9 11.1- 92.5- 7.0 1.0---- 15.0------------
1987-07-25 18.3 25.8 11.2- 82.5- 4.3 0.7---- 0.0------------
1987-07-24 20.6 28.2 15.1- 83.3- 4.0 1.0---- 1.6------------
1987-07-23 20.8 28.3 13.5- 79.0- 0.7 0.3---- 2.8------------
1987-07-22 19.8 23.9 12.5- 83.5- 3.3 1.3---- 0.0------------
1987-07-21 20.0 26.9 12.5- 78.0- 3.0 0.3---- 0.0------------
1987-07-20 21.4 25.6 17.0- 77.3- 2.0 1.7---- 0.0------------
1987-07-19 24.0 30.7 15.3- 75.0- 2.7 0.7---- 0.4------------
1987-07-18 24.9 30.4 13.7- 71.0- 1.0 0.3---- 0.0------------
1987-07-17 21.7 29.2 12.5- 76.3- 4.7 0.3---- 0.0------------
1987-07-16 19.5 27.7 9.4- 80.3- 3.0 0.3---- 0.5------------
1987-07-15 16.6 23.4 5.8- 72.5- 0.0 1.0---- 0.0------------
1987-07-14 17.9 21.4 11.7- 67.8- 0.7 1.0---- 0.0------------
1987-07-13 19.4 25.8 14.5- 77.8- 3.0 0.7---- 0.0------------
1987-07-12 21.9 30.3 9.2- 61.5- 0.7 1.3---- 5.0------------
1987-07-11 17.0 24.6 8.0- 72.5- 0.0 0.7---- 0.0------------
1987-07-10 16.0 19.4 11.2- 74.3- 2.3 2.0---- 0.0------------
1987-07-09 18.1 27.0 12.5- 84.8- 5.3 1.0---- 8.6------------
1987-07-08 21.4 29.8 8.8- 63.5- 0.0 0.7---- 0.0------------
1987-07-07 18.0 26.7 5.9- 67.3- 0.0 1.0---- 0.0------------
1987-07-06 17.0 21.9 9.2- 68.5- 0.0 1.0---- 0.0------------
1987-07-05 16.2 20.0 13.5- 79.5- 5.3 0.7---- 2.1------------
1987-07-04 19.0 23.4 13.2- 73.5- 3.3 1.7---- 1.0------------
1987-07-03 19.1 22.4 16.1- 79.3- 4.3 0.7---- 0.0------------
1987-07-02 19.6 27.1 17.6- 89.0- 6.7 1.7---- 0.8------------
1987-07-01 24.3 31.2 15.3- 78.0- 2.3 0.7---- 0.8------------
1987-06-30 22.5 29.8 12.6- 74.8- 0.0 1.0---- 0.0------------
1987-06-29 20.9 25.7 16.7- 81.3- 2.7 0.7---- 0.0------------
1987-06-28 19.8 25.1 13.8- 75.3- 3.3 0.7---- 0.0------------
1987-06-27 18.5 23.3 14.2- 87.8- 5.0 0.7---- 2.2------------
1987-06-26 16.1 25.1 4.8- 69.8- 1.3 0.7---- 0.0------------
1987-06-25 14.9 18.7 13.3- 77.5- 3.7 2.3---- 0.0------------
1987-06-24 16.7 21.0 11.3- 76.5- 4.0 1.7---- 0.4------------
1987-06-23 16.6 20.5 14.1- 85.3- 4.7 1.3---- 0.0------------
1987-06-22 16.0 21.7 12.3- 90.3- 4.7 2.0---- 2.7------------
1987-06-21 16.1 23.8 7.1- 80.8- 2.7 0.7---- 2.4------------
1987-06-20 14.4 23.7 3.7- 71.0- 0.3 0.7---- 0.0------------
1987-06-19 13.8 18.2 6.5- 76.8- 3.0 0.3---- 0.0------------
1987-06-18 11.6 18.0 3.6- 83.3- 2.0 0.7---- 0.6------------
1987-06-17 11.8 14.9 7.1- 78.5- 4.0 2.3---- 0.3------------
1987-06-16 16.9 23.4 14.0- 88.8- 5.3 1.3---- 1.6------------
486.8 ms

 

Źródłem pochodzenia danych jest Instytut Meteorologii i Gospodarki Wodnej – Państwowy Instytut Badawczy. Dane Instytutu Meteorologii i Gospodarki Wodnej – Państwowego Instytutu Badawczego zostały przetworzone.

Dane źródłowe można odnaleźć na stronie https://dane.imgw.pl